sensor_id;sensor_type;location;lat;lon;timestamp;pressure;altitude;pressure_sealevel;temperature;humidity
9289;BME280;4683;50.864;12.086;2022-08-04T00:00:06;99045.63;;;22.44;64.73
9289;BME280;4683;50.864;12.086;2022-08-04T00:03:02;99052.84;;;22.38;65.05
9289;BME280;4683;50.864;12.086;2022-08-04T00:05:59;99056.59;;;22.37;65.09
9289;BME280;4683;50.864;12.086;2022-08-04T00:08:45;99050.72;;;22.40;64.89
9289;BME280;4683;50.864;12.086;2022-08-04T00:11:21;99043.66;;;22.34;65.17
9289;BME280;4683;50.864;12.086;2022-08-04T00:13:56;99051.66;;;22.24;65.92
9289;BME280;4683;50.864;12.086;2022-08-04T00:16:36;99053.59;;;22.01;66.67
9289;BME280;4683;50.864;12.086;2022-08-04T00:19:27;99038.91;;;21.82;67.56
9289;BME280;4683;50.864;12.086;2022-08-04T00:22:03;99045.19;;;21.66;67.88
9289;BME280;4683;50.864;12.086;2022-08-04T00:24:36;99045.66;;;21.58;68.29
9289;BME280;4683;50.864;12.086;2022-08-04T00:27:07;99047.72;;;21.50;68.85
9289;BME280;4683;50.864;12.086;2022-08-04T00:29:38;99042.56;;;21.44;69.24
9289;BME280;4683;50.864;12.086;2022-08-04T00:32:13;99050.84;;;21.42;69.03
9289;BME280;4683;50.864;12.086;2022-08-04T00:34:43;99046.50;;;21.36;69.47
9289;BME280;4683;50.864;12.086;2022-08-04T00:37:12;99051.88;;;21.36;69.50
9289;BME280;4683;50.864;12.086;2022-08-04T00:39:45;99048.59;;;21.34;70.08
9289;BME280;4683;50.864;12.086;2022-08-04T00:43:07;99048.72;;;21.22;70.63
9289;BME280;4683;50.864;12.086;2022-08-04T00:46:33;99047.09;;;21.21;70.36
9289;BME280;4683;50.864;12.086;2022-08-04T00:49:42;99056.03;;;21.27;70.11
9289;BME280;4683;50.864;12.086;2022-08-04T00:52:32;99047.16;;;21.26;70.11
9289;BME280;4683;50.864;12.086;2022-08-04T00:55:27;99045.72;;;21.19;70.58
9289;BME280;4683;50.864;12.086;2022-08-04T00:58:21;99042.78;;;21.20;70.94
9289;BME280;4683;50.864;12.086;2022-08-04T01:00:58;99039.34;;;21.25;70.51
9289;BME280;4683;50.864;12.086;2022-08-04T01:03:59;99042.50;;;21.17;71.04
9289;BME280;4683;50.864;12.086;2022-08-04T01:06:50;99052.91;;;21.13;71.64
9289;BME280;4683;50.864;12.086;2022-08-04T01:09:43;99044.59;;;21.15;71.31
9289;BME280;4683;50.864;12.086;2022-08-04T01:12:57;99047.53;;;21.13;72.03
9289;BME280;4683;50.864;12.086;2022-08-04T01:15:44;99052.53;;;21.26;71.02
9289;BME280;4683;50.864;12.086;2022-08-04T01:18:50;99048.94;;;21.21;71.12
9289;BME280;4683;50.864;12.086;2022-08-04T01:25:11;99048.72;;;21.00;71.94
9289;BME280;4683;50.864;12.086;2022-08-04T01:28:13;99045.66;;;20.92;72.77
9289;BME280;4683;50.864;12.086;2022-08-04T01:31:00;99044.59;;;20.93;72.49
9289;BME280;4683;50.864;12.086;2022-08-04T01:33:46;99047.59;;;20.96;72.58
9289;BME280;4683;50.864;12.086;2022-08-04T01:36:24;99050.25;;;20.96;72.46
9289;BME280;4683;50.864;12.086;2022-08-04T01:39:14;99047.03;;;20.94;72.75
9289;BME280;4683;50.864;12.086;2022-08-04T01:42:21;99041.44;;;20.79;72.93
9289;BME280;4683;50.864;12.086;2022-08-04T01:45:12;99047.41;;;20.64;74.05
9289;BME280;4683;50.864;12.086;2022-08-04T01:48:03;99036.88;;;20.58;73.67
9289;BME280;4683;50.864;12.086;2022-08-04T01:50:58;99044.34;;;20.56;73.85
9289;BME280;4683;50.864;12.086;2022-08-04T01:53:41;99049.44;;;20.57;73.91
9289;BME280;4683;50.864;12.086;2022-08-04T01:56:12;99048.97;;;20.60;73.77
9289;BME280;4683;50.864;12.086;2022-08-04T01:58:40;99049.44;;;20.57;74.11
9289;BME280;4683;50.864;12.086;2022-08-04T02:01:11;99040.03;;;20.55;74.26
9289;BME280;4683;50.864;12.086;2022-08-04T02:03:44;99044.03;;;20.52;74.33
9289;BME280;4683;50.864;12.086;2022-08-04T02:06:30;99049.53;;;20.45;74.69
9289;BME280;4683;50.864;12.086;2022-08-04T02:09:07;99048.47;;;20.46;74.70
9289;BME280;4683;50.864;12.086;2022-08-04T02:11:40;99048.72;;;20.45;75.10
9289;BME280;4683;50.864;12.086;2022-08-04T02:14:22;99045.13;;;20.39;75.01
9289;BME280;4683;50.864;12.086;2022-08-04T02:17:11;99049.94;;;20.37;74.98
9289;BME280;4683;50.864;12.086;2022-08-04T02:19:58;99051.97;;;20.30;75.26
9289;BME280;4683;50.864;12.086;2022-08-04T02:22:28;99053.09;;;20.34;74.96
9289;BME280;4683;50.864;12.086;2022-08-04T02:25:07;99053.03;;;20.29;75.86
9289;BME280;4683;50.864;12.086;2022-08-04T02:27:55;99050.75;;;20.21;75.87
9289;BME280;4683;50.864;12.086;2022-08-04T02:30:37;99037.34;;;20.21;75.91
9289;BME280;4683;50.864;12.086;2022-08-04T02:33:08;99041.09;;;20.20;76.59
9289;BME280;4683;50.864;12.086;2022-08-04T02:35:44;99038.91;;;20.17;76.63
9289;BME280;4683;50.864;12.086;2022-08-04T02:38:25;99035.09;;;20.13;76.46
9289;BME280;4683;50.864;12.086;2022-08-04T02:40:55;99032.41;;;20.13;76.84
9289;BME280;4683;50.864;12.086;2022-08-04T02:43:28;99034.19;;;20.07;76.83
9289;BME280;4683;50.864;12.086;2022-08-04T02:46:00;99036.03;;;20.07;76.84
9289;BME280;4683;50.864;12.086;2022-08-04T02:48:32;99037.13;;;20.06;76.90
9289;BME280;4683;50.864;12.086;2022-08-04T02:51:05;99026.66;;;20.04;77.30
9289;BME280;4683;50.864;12.086;2022-08-04T02:53:36;99038.44;;;20.03;76.64
9289;BME280;4683;50.864;12.086;2022-08-04T02:56:07;99032.56;;;20.06;77.35
9289;BME280;4683;50.864;12.086;2022-08-04T02:58:41;99023.16;;;20.04;76.88
9289;BME280;4683;50.864;12.086;2022-08-04T03:01:14;99030.13;;;20.05;77.06
9289;BME280;4683;50.864;12.086;2022-08-04T03:03:55;99034.03;;;19.97;76.96
9289;BME280;4683;50.864;12.086;2022-08-04T03:07:18;99032.97;;;19.81;78.29
9289;BME280;4683;50.864;12.086;2022-08-04T03:10:34;99037.25;;;19.82;78.18
9289;BME280;4683;50.864;12.086;2022-08-04T03:13:42;99038.63;;;19.85;77.73
9289;BME280;4683;50.864;12.086;2022-08-04T03:20:08;99034.09;;;19.85;78.18
9289;BME280;4683;50.864;12.086;2022-08-04T03:23:49;99040.34;;;19.91;77.67
9289;BME280;4683;50.864;12.086;2022-08-04T03:30:05;99048.06;;;20.04;77.11
9289;BME280;4683;50.864;12.086;2022-08-04T03:33:19;99046.28;;;20.10;76.97
9289;BME280;4683;50.864;12.086;2022-08-04T03:36:31;99041.47;;;20.12;76.34
9289;BME280;4683;50.864;12.086;2022-08-04T03:49:56;99051.88;;;19.91;77.71
9289;BME280;4683;50.864;12.086;2022-08-04T03:53:02;99048.06;;;19.87;77.66
9289;BME280;4683;50.864;12.086;2022-08-04T03:56:07;99049.59;;;19.83;78.22
9289;BME280;4683;50.864;12.086;2022-08-04T03:58:48;99052.50;;;19.82;78.11
9289;BME280;4683;50.864;12.086;2022-08-04T04:01:48;99055.22;;;19.70;78.69
9289;BME280;4683;50.864;12.086;2022-08-04T04:11:07;99056.84;;;19.71;78.63
9289;BME280;4683;50.864;12.086;2022-08-04T04:14:31;99052.81;;;19.68;79.08
9289;BME280;4683;50.864;12.086;2022-08-04T04:17:32;99054.75;;;19.73;78.10
9289;BME280;4683;50.864;12.086;2022-08-04T04:23:30;99044.22;;;19.83;78.38
9289;BME280;4683;50.864;12.086;2022-08-04T04:26:19;99053.34;;;19.99;77.88
9289;BME280;4683;50.864;12.086;2022-08-04T04:32:02;99049.63;;;20.17;77.83
9289;BME280;4683;50.864;12.086;2022-08-04T04:34:42;99055.47;;;20.31;77.62
9289;BME280;4683;50.864;12.086;2022-08-04T04:37:32;99054.81;;;20.40;77.07
9289;BME280;4683;50.864;12.086;2022-08-04T04:40:21;99057.56;;;20.45;76.74
9289;BME280;4683;50.864;12.086;2022-08-04T04:43:18;99052.59;;;20.71;76.25
9289;BME280;4683;50.864;12.086;2022-08-04T04:45:56;99060.06;;;21.29;74.42
9289;BME280;4683;50.864;12.086;2022-08-04T04:48:44;99062.09;;;21.66;73.15
9289;BME280;4683;50.864;12.086;2022-08-04T04:51:21;99057.84;;;21.97;71.99
9289;BME280;4683;50.864;12.086;2022-08-04T04:54:01;99067.28;;;22.27;71.16
9289;BME280;4683;50.864;12.086;2022-08-04T04:56:40;99063.16;;;22.51;70.22
9289;BME280;4683;50.864;12.086;2022-08-04T04:59:15;99063.84;;;22.79;68.97
9289;BME280;4683;50.864;12.086;2022-08-04T05:02:29;99060.25;;;23.06;67.51
9289;BME280;4683;50.864;12.086;2022-08-04T05:05:32;99054.50;;;23.44;66.26
9289;BME280;4683;50.864;12.086;2022-08-04T05:08:38;99064.81;;;23.78;65.00
9289;BME280;4683;50.864;12.086;2022-08-04T05:15:07;99058.13;;;24.62;62.77
9289;BME280;4683;50.864;12.086;2022-08-04T05:17:40;99059.41;;;24.90;61.62
9289;BME280;4683;50.864;12.086;2022-08-04T05:20:18;99060.47;;;24.99;60.47
9289;BME280;4683;50.864;12.086;2022-08-04T05:22:54;99064.22;;;25.14;60.28
9289;BME280;4683;50.864;12.086;2022-08-04T05:25:27;99063.63;;;25.27;59.65
9289;BME280;4683;50.864;12.086;2022-08-04T05:28:05;99060.56;;;25.44;58.84
9289;BME280;4683;50.864;12.086;2022-08-04T05:30:41;99058.59;;;25.60;58.58
9289;BME280;4683;50.864;12.086;2022-08-04T05:33:19;99060.44;;;25.64;58.39
9289;BME280;4683;50.864;12.086;2022-08-04T05:35:53;99065.38;;;25.52;58.68
9289;BME280;4683;50.864;12.086;2022-08-04T05:38:30;99048.94;;;25.43;58.92
9289;BME280;4683;50.864;12.086;2022-08-04T05:41:03;99065.72;;;25.40;59.17
9289;BME280;4683;50.864;12.086;2022-08-04T05:43:32;99067.84;;;25.48;58.11
9289;BME280;4683;50.864;12.086;2022-08-04T05:46:04;99062.69;;;25.47;57.55
9289;BME280;4683;50.864;12.086;2022-08-04T05:52:40;99062.00;;;25.26;57.00
9289;BME280;4683;50.864;12.086;2022-08-04T05:55:10;99063.06;;;25.30;56.21
9289;BME280;4683;50.864;12.086;2022-08-04T05:57:40;99063.66;;;25.17;56.25
9289;BME280;4683;50.864;12.086;2022-08-04T06:00:10;99055.03;;;25.15;56.28
9289;BME280;4683;50.864;12.086;2022-08-04T06:02:44;99055.81;;;25.15;55.84
9289;BME280;4683;50.864;12.086;2022-08-04T06:05:16;99060.38;;;25.25;55.10
9289;BME280;4683;50.864;12.086;2022-08-04T06:07:45;99058.16;;;25.37;54.90
9289;BME280;4683;50.864;12.086;2022-08-04T06:10:15;99054.81;;;25.55;54.12
9289;BME280;4683;50.864;12.086;2022-08-04T06:12:51;99057.97;;;25.78;53.38
9289;BME280;4683;50.864;12.086;2022-08-04T06:15:21;99053.19;;;26.04;52.63
9289;BME280;4683;50.864;12.086;2022-08-04T06:18:00;99052.44;;;26.27;51.58
9289;BME280;4683;50.864;12.086;2022-08-04T06:20:34;99044.75;;;26.45;51.22
9289;BME280;4683;50.864;12.086;2022-08-04T06:23:08;99055.97;;;26.62;50.44
9289;BME280;4683;50.864;12.086;2022-08-04T06:25:42;99044.22;;;26.72;50.82
9289;BME280;4683;50.864;12.086;2022-08-04T06:28:13;99050.50;;;26.91;50.42
9289;BME280;4683;50.864;12.086;2022-08-04T06:30:42;99044.56;;;27.13;49.55
9289;BME280;4683;50.864;12.086;2022-08-04T06:33:15;99049.22;;;27.08;50.05
9289;BME280;4683;50.864;12.086;2022-08-04T06:35:53;99043.00;;;27.07;50.33
9289;BME280;4683;50.864;12.086;2022-08-04T06:38:25;99051.03;;;27.17;49.97
9289;BME280;4683;50.864;12.086;2022-08-04T06:40:56;99049.56;;;27.25;50.11
9289;BME280;4683;50.864;12.086;2022-08-04T06:43:26;99050.09;;;27.46;49.64
9289;BME280;4683;50.864;12.086;2022-08-04T06:45:56;99048.38;;;27.74;48.75
9289;BME280;4683;50.864;12.086;2022-08-04T06:48:31;99049.84;;;27.85;48.32
9289;BME280;4683;50.864;12.086;2022-08-04T06:51:00;99049.91;;;27.99;48.33
9289;BME280;4683;50.864;12.086;2022-08-04T06:53:31;99044.75;;;28.16;48.28
9289;BME280;4683;50.864;12.086;2022-08-04T06:56:01;99043.06;;;28.34;47.74
9289;BME280;4683;50.864;12.086;2022-08-04T06:58:31;99038.59;;;28.43;46.86
9289;BME280;4683;50.864;12.086;2022-08-04T07:01:03;99038.66;;;28.71;46.72
9289;BME280;4683;50.864;12.086;2022-08-04T07:03:36;99035.88;;;29.03;45.47
9289;BME280;4683;50.864;12.086;2022-08-04T07:06:07;99038.66;;;29.26;44.71
9289;BME280;4683;50.864;12.086;2022-08-04T07:08:36;99037.78;;;29.53;44.18
9289;BME280;4683;50.864;12.086;2022-08-04T07:11:05;99038.19;;;29.46;44.60
9289;BME280;4683;50.864;12.086;2022-08-04T07:13:36;99042.03;;;29.45;44.27
9289;BME280;4683;50.864;12.086;2022-08-04T07:16:06;99031.75;;;29.42;43.93
9289;BME280;4683;50.864;12.086;2022-08-04T07:18:36;99023.59;;;29.56;43.42
9289;BME280;4683;50.864;12.086;2022-08-04T07:21:04;99019.84;;;29.66;43.37
9289;BME280;4683;50.864;12.086;2022-08-04T07:23:34;99020.84;;;29.70;42.44
9289;BME280;4683;50.864;12.086;2022-08-04T07:26:03;99017.94;;;29.89;42.22
9289;BME280;4683;50.864;12.086;2022-08-04T07:28:31;99018.66;;;30.17;41.83
9289;BME280;4683;50.864;12.086;2022-08-04T07:31:01;99016.66;;;30.31;41.52
9289;BME280;4683;50.864;12.086;2022-08-04T07:33:41;99019.38;;;30.62;41.18
9289;BME280;4683;50.864;12.086;2022-08-04T07:36:42;99013.66;;;30.72;40.13
9289;BME280;4683;50.864;12.086;2022-08-04T07:39:29;99002.66;;;30.95;39.90
9289;BME280;4683;50.864;12.086;2022-08-04T07:42:01;99003.00;;;31.11;38.91
9289;BME280;4683;50.864;12.086;2022-08-04T07:44:31;99008.81;;;31.18;38.90
9289;BME280;4683;50.864;12.086;2022-08-04T07:47:01;99011.25;;;31.37;39.02
9289;BME280;4683;50.864;12.086;2022-08-04T07:49:35;99002.44;;;31.66;38.55
9289;BME280;4683;50.864;12.086;2022-08-04T07:52:04;99001.97;;;31.81;37.63
9289;BME280;4683;50.864;12.086;2022-08-04T07:54:35;99002.47;;;31.83;37.50
9289;BME280;4683;50.864;12.086;2022-08-04T07:57:04;99009.19;;;32.12;37.28
9289;BME280;4683;50.864;12.086;2022-08-04T07:59:34;99004.28;;;32.35;36.50
9289;BME280;4683;50.864;12.086;2022-08-04T08:02:03;98991.75;;;32.42;36.40
9289;BME280;4683;50.864;12.086;2022-08-04T08:04:34;98991.63;;;32.39;36.21
9289;BME280;4683;50.864;12.086;2022-08-04T08:07:03;98992.63;;;32.64;35.57
9289;BME280;4683;50.864;12.086;2022-08-04T08:09:33;98993.59;;;32.68;35.29
9289;BME280;4683;50.864;12.086;2022-08-04T08:12:03;98991.41;;;32.82;34.93
9289;BME280;4683;50.864;12.086;2022-08-04T08:14:32;98981.31;;;33.12;34.57
9289;BME280;4683;50.864;12.086;2022-08-04T08:17:02;98991.19;;;33.25;34.37
9289;BME280;4683;50.864;12.086;2022-08-04T08:19:31;98980.56;;;33.24;33.83
9289;BME280;4683;50.864;12.086;2022-08-04T08:22:11;98985.44;;;33.39;33.34
9289;BME280;4683;50.864;12.086;2022-08-04T08:24:42;98974.22;;;33.74;32.70
9289;BME280;4683;50.864;12.086;2022-08-04T08:27:10;98980.88;;;33.85;32.73
9289;BME280;4683;50.864;12.086;2022-08-04T08:29:39;98981.59;;;33.94;32.19
9289;BME280;4683;50.864;12.086;2022-08-04T08:32:10;98978.22;;;34.10;31.69
9289;BME280;4683;50.864;12.086;2022-08-04T08:34:49;98975.50;;;34.10;31.43
9289;BME280;4683;50.864;12.086;2022-08-04T08:37:34;98978.31;;;34.01;31.40
9289;BME280;4683;50.864;12.086;2022-08-04T08:40:25;98968.38;;;33.96;31.26
9289;BME280;4683;50.864;12.086;2022-08-04T08:43:33;98972.72;;;33.97;31.62
9289;BME280;4683;50.864;12.086;2022-08-04T08:46:46;98970.06;;;34.34;31.45
9289;BME280;4683;50.864;12.086;2022-08-04T08:50:02;98969.16;;;34.42;30.88
9289;BME280;4683;50.864;12.086;2022-08-04T08:53:07;98961.53;;;34.60;30.54
9289;BME280;4683;50.864;12.086;2022-08-04T08:55:54;98977.88;;;34.69;30.50
9289;BME280;4683;50.864;12.086;2022-08-04T08:58:45;98974.44;;;34.72;30.51
9289;BME280;4683;50.864;12.086;2022-08-04T09:01:42;98975.91;;;35.06;30.29
9289;BME280;4683;50.864;12.086;2022-08-04T09:08:04;98964.50;;;35.16;29.02
9289;BME280;4683;50.864;12.086;2022-08-04T09:10:44;98966.50;;;35.19;29.25
9289;BME280;4683;50.864;12.086;2022-08-04T09:13:20;98975.28;;;35.37;29.43
9289;BME280;4683;50.864;12.086;2022-08-04T09:16:01;98976.31;;;35.32;28.81
9289;BME280;4683;50.864;12.086;2022-08-04T09:18:41;98972.34;;;35.30;28.50
9289;BME280;4683;50.864;12.086;2022-08-04T09:21:22;98963.91;;;35.11;29.05
9289;BME280;4683;50.864;12.086;2022-08-04T09:24:05;98963.09;;;35.22;28.67
9289;BME280;4683;50.864;12.086;2022-08-04T09:26:43;98965.38;;;35.61;28.61
9289;BME280;4683;50.864;12.086;2022-08-04T09:29:19;98953.72;;;35.64;28.04
9289;BME280;4683;50.864;12.086;2022-08-04T09:31:57;98954.22;;;35.41;27.62
9289;BME280;4683;50.864;12.086;2022-08-04T09:34:41;98956.28;;;35.44;27.98
9289;BME280;4683;50.864;12.086;2022-08-04T09:37:23;98946.75;;;35.26;28.21
9289;BME280;4683;50.864;12.086;2022-08-04T09:40:05;98958.28;;;35.60;27.31
9289;BME280;4683;50.864;12.086;2022-08-04T09:42:51;98956.53;;;35.95;26.83
9289;BME280;4683;50.864;12.086;2022-08-04T09:45:36;98955.59;;;36.03;27.41
9289;BME280;4683;50.864;12.086;2022-08-04T09:48:11;98948.97;;;35.92;26.73
9289;BME280;4683;50.864;12.086;2022-08-04T09:50:42;98945.94;;;36.10;26.60
9289;BME280;4683;50.864;12.086;2022-08-04T09:53:35;98950.19;;;35.79;26.56
9289;BME280;4683;50.864;12.086;2022-08-04T09:56:25;98943.09;;;35.62;26.77
9289;BME280;4683;50.864;12.086;2022-08-04T09:59:08;98943.91;;;35.78;26.64
9289;BME280;4683;50.864;12.086;2022-08-04T10:01:38;98938.56;;;36.14;25.85
9289;BME280;4683;50.864;12.086;2022-08-04T10:04:12;98938.56;;;36.14;25.86
9289;BME280;4683;50.864;12.086;2022-08-04T10:07:15;98932.03;;;36.02;26.32
9289;BME280;4683;50.864;12.086;2022-08-04T10:09:56;98936.28;;;36.16;26.18
9289;BME280;4683;50.864;12.086;2022-08-04T10:12:40;98937.69;;;36.10;25.96
9289;BME280;4683;50.864;12.086;2022-08-04T10:15:15;98937.34;;;36.27;25.39
9289;BME280;4683;50.864;12.086;2022-08-04T10:18:20;98934.50;;;36.07;25.99
9289;BME280;4683;50.864;12.086;2022-08-04T10:21:03;98929.53;;;36.29;25.80
9289;BME280;4683;50.864;12.086;2022-08-04T10:23:41;98925.28;;;36.47;25.64
9289;BME280;4683;50.864;12.086;2022-08-04T10:26:32;98930.78;;;36.63;24.95
9289;BME280;4683;50.864;12.086;2022-08-04T10:29:09;98929.66;;;36.99;25.23
9289;BME280;4683;50.864;12.086;2022-08-04T10:31:51;98941.44;;;37.00;25.02
9289;BME280;4683;50.864;12.086;2022-08-04T10:34:25;98916.88;;;36.91;24.36
9289;BME280;4683;50.864;12.086;2022-08-04T10:37:03;98924.38;;;36.75;25.12
9289;BME280;4683;50.864;12.086;2022-08-04T10:39:45;98914.63;;;36.97;25.17
9289;BME280;4683;50.864;12.086;2022-08-04T10:42:36;98926.31;;;37.29;24.71
9289;BME280;4683;50.864;12.086;2022-08-04T10:45:22;98914.59;;;37.32;24.91
9289;BME280;4683;50.864;12.086;2022-08-04T10:48:06;98915.84;;;37.54;24.55
9289;BME280;4683;50.864;12.086;2022-08-04T10:50:47;98913.28;;;37.65;24.26
9289;BME280;4683;50.864;12.086;2022-08-04T10:53:21;98910.06;;;37.82;24.01
9289;BME280;4683;50.864;12.086;2022-08-04T10:56:02;98906.22;;;37.87;24.06
9289;BME280;4683;50.864;12.086;2022-08-04T10:58:39;98902.81;;;37.74;23.74
9289;BME280;4683;50.864;12.086;2022-08-04T11:01:22;98894.19;;;37.52;24.58
9289;BME280;4683;50.864;12.086;2022-08-04T11:03:57;98898.16;;;37.55;24.09
9289;BME280;4683;50.864;12.086;2022-08-04T11:06:27;98895.88;;;37.80;23.73
9289;BME280;4683;50.864;12.086;2022-08-04T11:08:58;98895.31;;;37.71;23.92
9289;BME280;4683;50.864;12.086;2022-08-04T11:11:35;98900.06;;;37.74;23.68
9289;BME280;4683;50.864;12.086;2022-08-04T11:14:09;98894.53;;;37.70;23.81
9289;BME280;4683;50.864;12.086;2022-08-04T11:16:48;98905.84;;;37.88;23.63
9289;BME280;4683;50.864;12.086;2022-08-04T11:19:37;98896.13;;;37.94;23.67
9289;BME280;4683;50.864;12.086;2022-08-04T11:22:19;98897.00;;;37.98;23.88
9289;BME280;4683;50.864;12.086;2022-08-04T11:24:58;98891.47;;;37.75;24.32
9289;BME280;4683;50.864;12.086;2022-08-04T11:27:44;98880.13;;;37.57;24.35
9289;BME280;4683;50.864;12.086;2022-08-04T11:30:19;98885.56;;;37.54;24.30
9289;BME280;4683;50.864;12.086;2022-08-04T11:33:05;98883.31;;;37.40;24.32
9289;BME280;4683;50.864;12.086;2022-08-04T11:35:46;98891.44;;;37.52;24.14
9289;BME280;4683;50.864;12.086;2022-08-04T11:38:24;98894.16;;;37.72;23.65
9289;BME280;4683;50.864;12.086;2022-08-04T11:40:59;98893.13;;;37.61;23.92
9289;BME280;4683;50.864;12.086;2022-08-04T11:43:41;98894.47;;;37.47;24.29
9289;BME280;4683;50.864;12.086;2022-08-04T11:46:17;98894.53;;;37.70;24.17
9289;BME280;4683;50.864;12.086;2022-08-04T11:49:00;98893.09;;;37.57;24.15
9289;BME280;4683;50.864;12.086;2022-08-04T11:51:49;98886.00;;;37.79;23.78
9289;BME280;4683;50.864;12.086;2022-08-04T11:54:32;98885.94;;;37.75;23.94
9289;BME280;4683;50.864;12.086;2022-08-04T11:57:02;98882.88;;;37.80;23.91
9289;BME280;4683;50.864;12.086;2022-08-04T11:59:32;98882.25;;;37.68;24.36
9289;BME280;4683;50.864;12.086;2022-08-04T12:02:39;98881.06;;;37.46;24.69
9289;BME280;4683;50.864;12.086;2022-08-04T12:05:20;98880.34;;;37.91;23.97
9289;BME280;4683;50.864;12.086;2022-08-04T12:08:02;98888.06;;;37.63;24.27
9289;BME280;4683;50.864;12.086;2022-08-04T12:10:52;98881.53;;;37.71;24.04
9289;BME280;4683;50.864;12.086;2022-08-04T12:13:36;98883.16;;;37.95;24.01
9289;BME280;4683;50.864;12.086;2022-08-04T12:16:15;98874.69;;;38.30;23.86
9289;BME280;4683;50.864;12.086;2022-08-04T12:18:50;98879.09;;;38.61;23.55
9289;BME280;4683;50.864;12.086;2022-08-04T12:21:30;98882.50;;;38.77;23.49
9289;BME280;4683;50.864;12.086;2022-08-04T12:24:04;98879.28;;;38.75;22.91
9289;BME280;4683;50.864;12.086;2022-08-04T12:26:39;98872.69;;;38.53;22.80
9289;BME280;4683;50.864;12.086;2022-08-04T12:29:13;98862.38;;;38.50;23.33
9289;BME280;4683;50.864;12.086;2022-08-04T12:31:50;98871.84;;;38.49;23.61
9289;BME280;4683;50.864;12.086;2022-08-04T12:34:30;98867.69;;;38.36;23.30
9289;BME280;4683;50.864;12.086;2022-08-04T12:40:19;98864.03;;;38.05;23.89
9289;BME280;4683;50.864;12.086;2022-08-04T12:43:01;98863.38;;;38.12;23.88
9289;BME280;4683;50.864;12.086;2022-08-04T12:45:30;98863.31;;;38.08;23.82
9289;BME280;4683;50.864;12.086;2022-08-04T12:48:04;98858.16;;;37.84;23.68
9289;BME280;4683;50.864;12.086;2022-08-04T12:50:39;98861.72;;;38.07;23.45
9289;BME280;4683;50.864;12.086;2022-08-04T12:53:12;98858.00;;;38.23;23.44
9289;BME280;4683;50.864;12.086;2022-08-04T12:55:48;98862.72;;;38.45;23.56
9289;BME280;4683;50.864;12.086;2022-08-04T12:58:22;98848.00;;;38.38;23.27
9289;BME280;4683;50.864;12.086;2022-08-04T13:01:04;98843.28;;;38.38;23.40
9289;BME280;4683;50.864;12.086;2022-08-04T13:03:40;98846.06;;;38.38;23.22
9289;BME280;4683;50.864;12.086;2022-08-04T13:06:12;98845.44;;;38.48;23.83
9289;BME280;4683;50.864;12.086;2022-08-04T13:08:45;98848.06;;;38.41;23.70
9289;BME280;4683;50.864;12.086;2022-08-04T13:11:17;98840.84;;;38.33;23.45
9289;BME280;4683;50.864;12.086;2022-08-04T13:13:46;98835.97;;;38.49;23.87
9289;BME280;4683;50.864;12.086;2022-08-04T13:16:29;98832.50;;;38.56;23.38
9289;BME280;4683;50.864;12.086;2022-08-04T13:19:06;98830.13;;;38.54;23.05
9289;BME280;4683;50.864;12.086;2022-08-04T13:21:41;98822.31;;;38.56;23.47
9289;BME280;4683;50.864;12.086;2022-08-04T13:24:14;98826.19;;;38.52;23.49
9289;BME280;4683;50.864;12.086;2022-08-04T13:27:08;98826.44;;;38.43;23.18
9289;BME280;4683;50.864;12.086;2022-08-04T13:29:45;98822.63;;;38.81;23.11
9289;BME280;4683;50.864;12.086;2022-08-04T13:32:19;98824.38;;;38.93;23.01
9289;BME280;4683;50.864;12.086;2022-08-04T13:34:52;98822.25;;;38.83;22.48
9289;BME280;4683;50.864;12.086;2022-08-04T13:37:40;98820.47;;;38.68;22.92
9289;BME280;4683;50.864;12.086;2022-08-04T13:40:40;98819.22;;;38.62;23.30
9289;BME280;4683;50.864;12.086;2022-08-04T13:43:23;98817.06;;;38.48;23.08
9289;BME280;4683;50.864;12.086;2022-08-04T13:46:00;98813.28;;;38.33;22.86
9289;BME280;4683;50.864;12.086;2022-08-04T13:48:32;98815.50;;;38.24;23.71
9289;BME280;4683;50.864;12.086;2022-08-04T13:51:03;98815.34;;;38.13;23.74
9289;BME280;4683;50.864;12.086;2022-08-04T13:53:39;98808.50;;;38.30;23.11
9289;BME280;4683;50.864;12.086;2022-08-04T13:56:10;98805.69;;;38.53;22.83
9289;BME280;4683;50.864;12.086;2022-08-04T13:58:45;98796.63;;;38.52;22.96
9289;BME280;4683;50.864;12.086;2022-08-04T14:01:18;98795.59;;;38.64;22.95
9289;BME280;4683;50.864;12.086;2022-08-04T14:04:02;98796.38;;;38.65;22.81
9289;BME280;4683;50.864;12.086;2022-08-04T14:06:35;98799.91;;;38.92;22.85
9289;BME280;4683;50.864;12.086;2022-08-04T14:09:21;98793.63;;;38.65;23.03
9289;BME280;4683;50.864;12.086;2022-08-04T14:12:02;98793.97;;;38.60;22.73
9289;BME280;4683;50.864;12.086;2022-08-04T14:14:34;98791.84;;;38.76;22.80
9289;BME280;4683;50.864;12.086;2022-08-04T14:17:06;98777.72;;;38.81;22.75
9289;BME280;4683;50.864;12.086;2022-08-04T14:19:52;98780.63;;;38.65;22.09
9289;BME280;4683;50.864;12.086;2022-08-04T14:22:33;98778.72;;;38.69;22.36
9289;BME280;4683;50.864;12.086;2022-08-04T14:25:07;98776.75;;;38.70;22.17
9289;BME280;4683;50.864;12.086;2022-08-04T14:27:47;98771.41;;;38.80;21.73
9289;BME280;4683;50.864;12.086;2022-08-04T14:30:29;98774.16;;;38.80;22.48
9289;BME280;4683;50.864;12.086;2022-08-04T14:33:04;98772.00;;;38.67;22.44
9289;BME280;4683;50.864;12.086;2022-08-04T14:35:37;98770.31;;;38.58;22.13
9289;BME280;4683;50.864;12.086;2022-08-04T14:38:08;98761.41;;;38.39;22.82
9289;BME280;4683;50.864;12.086;2022-08-04T14:40:39;98771.91;;;38.60;22.58
9289;BME280;4683;50.864;12.086;2022-08-04T14:43:17;98773.31;;;38.76;22.34
9289;BME280;4683;50.864;12.086;2022-08-04T14:45:49;98761.03;;;38.74;22.18
9289;BME280;4683;50.864;12.086;2022-08-04T14:48:28;98766.25;;;38.49;22.67
9289;BME280;4683;50.864;12.086;2022-08-04T14:50:58;98771.38;;;38.24;22.77
9289;BME280;4683;50.864;12.086;2022-08-04T14:53:26;98766.72;;;38.01;22.68
9289;BME280;4683;50.864;12.086;2022-08-04T14:55:58;98758.06;;;37.76;23.03
9289;BME280;4683;50.864;12.086;2022-08-04T14:58:29;98760.88;;;37.80;22.94
9289;BME280;4683;50.864;12.086;2022-08-04T15:01:02;98750.50;;;38.23;22.81
9289;BME280;4683;50.864;12.086;2022-08-04T15:03:31;98752.94;;;38.28;22.83
9289;BME280;4683;50.864;12.086;2022-08-04T15:06:00;98754.25;;;38.34;22.39
9289;BME280;4683;50.864;12.086;2022-08-04T15:08:30;98754.00;;;38.76;22.82